createdAt,value
2019-01-21T00:01:51.365Z,92.27
2019-01-21T00:03:58.858Z,82.87
2019-01-21T00:06:06.257Z,84.37
2019-01-21T00:08:13.655Z,84.10
2019-01-21T00:10:21.034Z,85.40
2019-01-21T00:12:28.826Z,79.83
2019-01-21T00:14:36.229Z,83.97
2019-01-21T00:16:43.298Z,80.60
2019-01-21T00:18:50.863Z,80.87
2019-01-21T00:20:58.254Z,82.80
2019-01-21T00:23:05.312Z,84.87
2019-01-21T00:25:12.395Z,92.27
2019-01-21T00:27:19.505Z,93.00
2019-01-21T00:29:26.514Z,83.57
2019-01-21T00:31:33.942Z,87.80
2019-01-21T00:33:41.324Z,76.00
2019-01-21T00:35:48.360Z,91.23
2019-01-21T00:37:55.413Z,87.47
2019-01-21T00:40:02.443Z,86.20
2019-01-21T00:42:09.503Z,82.87
2019-01-21T00:44:16.720Z,81.77
2019-01-21T00:46:24.143Z,79.53
2019-01-21T00:48:31.611Z,97.20
2019-01-21T00:50:39.255Z,87.40
2019-01-21T00:52:46.289Z,85.77
2019-01-21T00:54:53.327Z,93.57
2019-01-21T00:57:00.413Z,86.17
2019-01-21T00:59:07.458Z,88.33
2019-01-21T01:01:14.524Z,89.10
2019-01-21T01:03:21.696Z,86.90
2019-01-21T01:05:28.737Z,85.17
2019-01-21T01:07:35.856Z,91.83
2019-01-21T01:09:43.139Z,95.43
2019-01-21T01:11:50.067Z,89.57
2019-01-21T01:13:57.111Z,88.87
2019-01-21T01:16:04.241Z,92.57
2019-01-21T01:18:11.233Z,152.60
2019-01-21T01:20:21.101Z,175.03
2019-01-21T01:22:28.238Z,168.17
2019-01-21T01:24:35.218Z,101.27
2019-01-21T01:26:42.295Z,96.57
2019-01-21T01:28:49.371Z,99.37
2019-01-21T01:30:56.672Z,100.93
2019-01-21T01:33:03.917Z,88.10
2019-01-21T01:35:12.236Z,95.60
2019-01-21T01:37:19.609Z,91.27
2019-01-21T01:39:27.040Z,83.13
2019-01-21T01:41:34.051Z,98.63
2019-01-21T01:43:41.533Z,94.43
2019-01-21T01:45:48.843Z,90.80
2019-01-21T01:48:07.404Z,94.70
2019-01-21T01:50:14.459Z,90.23
2019-01-21T01:52:21.977Z,88.90
2019-01-21T01:54:29.019Z,84.40
2019-01-21T01:56:36.324Z,93.80
2019-01-21T01:58:43.681Z,96.63
2019-01-21T02:00:50.929Z,86.80
2019-01-21T02:02:57.925Z,87.07
2019-01-21T02:05:04.999Z,96.77
2019-01-21T02:07:12.115Z,94.87
2019-01-21T02:09:19.608Z,108.63
2019-01-21T02:11:26.908Z,102.63
2019-01-21T02:13:34.819Z,89.73
2019-01-21T02:15:41.861Z,87.97
2019-01-21T02:17:52.227Z,97.60
2019-01-21T02:19:58.802Z,95.87
2019-01-21T02:22:06.136Z,91.20
2019-01-21T02:24:14.200Z,90.00
2019-01-21T02:26:27.121Z,93.23
2019-01-21T02:29:27.328Z,91.13
2019-01-21T02:32:39.472Z,86.73
2019-01-21T02:35:36.894Z,97.87
2019-01-21T02:38:56.566Z,91.40
2019-01-21T02:41:40.616Z,89.20
2019-01-21T02:44:33.853Z,84.60
2019-01-21T02:47:48.909Z,87.10
2019-01-21T02:51:17.023Z,94.33
2019-01-21T02:54:10.571Z,87.97
2019-01-21T02:57:25.870Z,98.63
2019-01-21T03:00:32.865Z,92.90
2019-01-21T03:03:28.774Z,96.97
2019-01-21T03:06:34.334Z,106.83
2019-01-21T03:09:35.982Z,90.20
2019-01-21T03:12:39.338Z,96.83
2019-01-21T03:15:39.871Z,100.20
2019-01-21T03:19:03.633Z,87.53
2019-01-21T03:22:14.404Z,90.10
2019-01-21T03:25:33.843Z,93.90
2019-01-21T03:29:06.016Z,96.53
2019-01-21T03:35:18.885Z,108.37
2019-01-21T03:38:10.126Z,121.00
2019-01-21T03:41:09.957Z,100.90
2019-01-21T03:44:20.825Z,104.50
2019-01-21T03:47:18.797Z,90.63
2019-01-21T03:50:18.987Z,97.90
2019-01-21T03:53:05.035Z,91.33
2019-01-21T03:55:16.309Z,91.73
2019-01-21T03:58:29.491Z,104.33
2019-01-21T04:00:58.717Z,88.17
2019-01-21T04:04:02.277Z,84.73
2019-01-21T04:07:29.422Z,106.43
2019-01-21T04:11:06.720Z,103.43
2019-01-21T04:14:15.576Z,90.63
2019-01-21T04:17:13.474Z,82.53
2019-01-21T04:19:39.345Z,86.37
2019-01-21T04:22:37.599Z,89.77
2019-01-21T04:25:44.457Z,93.03
2019-01-21T04:28:50.949Z,87.33
2019-01-21T04:31:52.069Z,88.03
2019-01-21T04:35:01.543Z,95.90
2019-01-21T04:38:20.469Z,96.40
2019-01-21T04:41:43.165Z,103.43
2019-01-21T04:44:29.958Z,90.97
2019-01-21T04:47:48.915Z,97.57
2019-01-21T04:50:39.659Z,96.60
2019-01-21T04:53:18.176Z,137.47
2019-01-21T04:56:27.348Z,140.63
2019-01-21T04:59:24.624Z,134.63
2019-01-21T05:02:11.855Z,99.40
2019-01-21T05:04:56.829Z,97.73
2019-01-21T05:08:11.004Z,103.53
2019-01-21T05:11:07.922Z,100.77
2019-01-21T05:13:56.027Z,107.30
2019-01-21T05:16:39.850Z,87.60
2019-01-21T05:19:34.889Z,96.50
2019-01-21T05:22:25.135Z,95.70
2019-01-21T05:25:15.666Z,92.00
2019-01-21T05:28:17.133Z,95.57
2019-01-21T05:31:16.956Z,95.10
2019-01-21T05:34:08.456Z,93.53
2019-01-21T05:36:52.807Z,90.30
2019-01-21T05:39:51.110Z,121.10
2019-01-21T05:42:43.178Z,114.63
2019-01-21T05:45:42.495Z,123.50
2019-01-21T05:48:53.041Z,111.10
2019-01-21T05:51:50.909Z,99.50
2019-01-21T05:54:47.308Z,99.80
2019-01-21T05:58:14.827Z,97.37
2019-01-21T06:01:06.733Z,92.07
2019-01-21T06:03:43.326Z,96.57
2019-01-21T06:07:20.942Z,86.60
2019-01-21T06:10:27.170Z,92.30
2019-01-21T06:13:05.466Z,97.27
2019-01-21T06:15:51.953Z,118.23
2019-01-21T06:18:38.293Z,110.67
2019-01-21T06:21:47.161Z,102.93
2019-01-21T06:24:41.941Z,113.83
2019-01-21T06:27:36.518Z,113.17
2019-01-21T06:30:43.482Z,111.90
2019-01-21T06:33:44.604Z,92.47
2019-01-21T06:36:09.462Z,103.53
2019-01-21T06:39:32.241Z,108.13
2019-01-21T06:42:30.157Z,96.60
2019-01-21T06:45:13.804Z,99.13
2019-01-21T06:48:23.663Z,178.77
2019-01-21T06:51:36.823Z,84.73
2019-01-21T06:54:47.520Z,134.97
2019-01-21T06:57:50.126Z,119.83
2019-01-21T07:01:08.370Z,120.70
2019-01-21T07:04:12.798Z,192.20
2019-01-21T07:07:01.347Z,135.13
2019-01-21T07:09:56.196Z,123.30
2019-01-21T07:13:17.328Z,107.33
2019-01-21T07:16:28.111Z,108.00
2019-01-21T07:19:41.084Z,93.83
2019-01-21T07:22:44.224Z,102.63
2019-01-21T07:25:23.772Z,105.30
2019-01-21T07:28:36.962Z,99.73
2019-01-21T07:31:18.677Z,112.03
2019-01-21T07:34:26.526Z,106.47
2019-01-21T07:37:14.778Z,106.47
2019-01-21T07:40:08.275Z,103.10
2019-01-21T07:43:12.749Z,108.13
2019-01-21T07:46:14.361Z,109.53
2019-01-21T07:48:40.745Z,109.33
2019-01-21T07:52:14.913Z,97.57
2019-01-21T07:55:18.178Z,97.63
2019-01-21T07:58:12.438Z,95.67
2019-01-21T08:00:44.274Z,90.53
2019-01-21T08:03:30.137Z,103.97
2019-01-21T08:06:27.536Z,109.03
2019-01-21T08:09:27.483Z,92.30
2019-01-21T08:12:31.919Z,89.13
2019-01-21T08:15:40.469Z,94.70
2019-01-21T08:18:39.950Z,93.70
2019-01-21T08:21:46.765Z,94.93
2019-01-21T08:24:38.204Z,109.30
2019-01-21T08:27:31.800Z,113.53
2019-01-21T08:30:25.859Z,105.83
2019-01-21T08:33:11.661Z,92.23
2019-01-21T08:36:13.866Z,114.33
2019-01-21T08:39:13.462Z,91.47
2019-01-21T08:42:22.291Z,99.37
2019-01-21T08:45:28.360Z,93.07
2019-01-21T08:48:25.013Z,115.63
2019-01-21T08:51:25.825Z,105.10
2019-01-21T08:54:42.664Z,94.13
2019-01-21T08:57:55.283Z,93.90
2019-01-21T09:00:51.751Z,89.70
2019-01-21T09:04:04.257Z,83.60
2019-01-21T09:07:19.385Z,171.10
2019-01-21T09:09:46.174Z,94.80
2019-01-21T09:13:13.020Z,81.73
2019-01-21T09:16:10.797Z,82.23
2019-01-21T09:19:20.252Z,79.30
2019-01-21T09:22:11.131Z,75.60
2019-01-21T09:25:20.050Z,86.07
2019-01-21T09:28:25.646Z,78.70
2019-01-21T09:31:59.200Z,87.70
2019-01-21T09:35:18.788Z,76.53
2019-01-21T09:38:01.502Z,69.87
2019-01-21T09:41:31.748Z,81.00
2019-01-21T09:44:32.150Z,82.13
2019-01-21T09:46:46.333Z,80.30
2019-01-21T09:48:50.925Z,73.37
2019-01-21T09:51:00.914Z,72.43
2019-01-21T09:53:08.538Z,67.40
2019-01-21T09:55:17.155Z,81.00
2019-01-21T09:57:28.293Z,74.77
2019-01-21T09:59:36.704Z,76.83
2019-01-21T10:01:44.143Z,66.17
2019-01-21T10:03:51.723Z,70.43
2019-01-21T10:06:05.299Z,73.63
2019-01-21T10:09:08.105Z,70.90
2019-01-21T10:12:07.891Z,68.57
2019-01-21T10:15:15.202Z,67.17
2019-01-21T10:18:21.786Z,76.27
2019-01-21T10:21:33.522Z,84.80
2019-01-21T10:24:41.293Z,82.53
2019-01-21T10:27:43.371Z,67.80
2019-01-21T10:30:46.489Z,82.83
2019-01-21T10:33:51.447Z,80.97
2019-01-21T10:36:54.870Z,77.97
2019-01-21T10:40:02.988Z,79.00
2019-01-21T10:43:25.118Z,70.93
2019-01-21T10:46:17.300Z,67.57
2019-01-21T10:48:43.725Z,72.77
2019-01-21T10:51:48.479Z,73.50
2019-01-21T10:54:54.619Z,84.37
2019-01-21T10:57:41.339Z,106.00
2019-01-21T11:00:23.329Z,90.53
2019-01-21T11:03:38.104Z,86.13
2019-01-21T11:06:59.938Z,74.13
2019-01-21T11:09:46.090Z,72.20
2019-01-21T11:12:49.600Z,80.50
2019-01-21T11:15:38.658Z,98.03
2019-01-21T11:19:06.028Z,91.07
2019-01-21T11:21:45.842Z,71.83
2019-01-21T11:24:51.360Z,79.80
2019-01-21T11:28:01.765Z,65.50
2019-01-21T11:30:53.870Z,64.57
2019-01-21T11:34:09.083Z,77.47
2019-01-21T11:37:21.320Z,79.00
2019-01-21T11:40:10.744Z,65.57
2019-01-21T11:42:59.842Z,75.43
2019-01-21T11:45:58.525Z,71.00
2019-01-21T11:48:45.675Z,63.87
2019-01-21T11:52:17.741Z,70.47
2019-01-21T11:55:29.556Z,53.53
2019-01-21T11:58:31.892Z,59.93
2019-01-21T12:01:36.232Z,58.47
2019-01-21T12:04:15.203Z,62.53
2019-01-21T12:06:39.818Z,74.83
2019-01-21T12:09:38.989Z,67.23
2019-01-21T12:12:31.227Z,86.87
2019-01-21T12:15:40.999Z,70.27
2019-01-21T12:18:59.374Z,76.60
2019-01-21T12:21:47.612Z,60.77
2019-01-21T12:24:27.129Z,63.57
2019-01-21T12:27:32.980Z,58.07
2019-01-21T12:30:54.121Z,79.00
2019-01-21T12:33:58.248Z,57.57
2019-01-21T12:36:41.260Z,70.10
2019-01-21T12:39:30.475Z,67.07
2019-01-21T12:42:24.209Z,65.07
2019-01-21T12:45:05.362Z,66.67
2019-01-21T12:47:48.285Z,54.00
2019-01-21T12:51:12.611Z,53.67
2019-01-21T12:54:38.336Z,50.03
2019-01-21T12:58:03.571Z,45.63
2019-01-21T13:01:07.320Z,53.50
2019-01-21T13:04:47.775Z,60.23
2019-01-21T13:08:18.479Z,64.90
2019-01-21T13:11:24.832Z,92.40
2019-01-21T13:14:18.607Z,88.10
2019-01-21T13:16:59.048Z,96.97
2019-01-21T13:20:48.633Z,65.03
2019-01-21T13:23:37.220Z,57.27
2019-01-21T13:26:33.841Z,54.07
2019-01-21T13:29:49.335Z,51.37
2019-01-21T13:32:56.317Z,59.73
2019-01-21T13:35:49.291Z,64.17
2019-01-21T13:38:55.880Z,63.17
2019-01-21T13:41:46.577Z,57.30
2019-01-21T13:44:58.274Z,59.37
2019-01-21T13:48:09.476Z,88.43
2019-01-21T13:50:37.244Z,75.50
2019-01-21T13:53:54.737Z,54.93
2019-01-21T13:56:51.229Z,49.23
2019-01-21T13:59:56.552Z,55.00
2019-01-21T14:03:03.590Z,59.77
2019-01-21T14:06:10.584Z,62.67
2019-01-21T14:09:29.341Z,57.60
2019-01-21T14:12:11.836Z,75.07
2019-01-21T14:14:58.676Z,84.97
2019-01-21T14:18:22.263Z,82.10
2019-01-21T14:21:12.327Z,73.33
2019-01-21T14:23:41.614Z,87.70
2019-01-21T14:27:09.514Z,84.97
2019-01-21T14:30:14.438Z,66.33
2019-01-21T14:33:11.780Z,71.43
2019-01-21T14:36:15.649Z,68.07
2019-01-21T14:39:13.897Z,63.30
2019-01-21T14:42:07.269Z,72.50
2019-01-21T14:45:21.164Z,64.17
2019-01-21T14:48:32.582Z,67.43
2019-01-21T14:51:24.760Z,69.27
2019-01-21T14:54:26.813Z,72.83
2019-01-21T14:57:23.958Z,69.30
2019-01-21T15:00:40.726Z,76.53
2019-01-21T15:03:46.857Z,78.97
2019-01-21T15:06:55.052Z,73.63
2019-01-21T15:09:55.253Z,70.50
2019-01-21T15:12:29.329Z,74.23
2019-01-21T15:15:14.870Z,83.87
2019-01-21T15:17:54.393Z,91.63
2019-01-21T15:20:38.764Z,111.83
2019-01-21T15:23:24.762Z,124.60
2019-01-21T15:26:36.749Z,142.20
2019-01-21T15:29:39.036Z,156.97
2019-01-21T15:32:14.212Z,156.40
2019-01-21T15:35:30.835Z,145.77
2019-01-21T15:38:12.605Z,92.40
2019-01-21T15:41:28.675Z,106.83
2019-01-21T15:44:03.811Z,90.80
2019-01-21T15:46:40.858Z,83.40
2019-01-21T15:49:28.935Z,83.00
2019-01-21T15:52:49.793Z,86.50
2019-01-21T15:55:52.949Z,81.57
2019-01-21T15:58:48.006Z,77.90
2019-01-21T16:01:57.845Z,80.47
2019-01-21T16:04:35.835Z,74.90
2019-01-21T16:07:21.170Z,77.00
2019-01-21T16:10:32.576Z,87.23
2019-01-21T16:13:45.657Z,80.90
2019-01-21T16:17:06.507Z,120.93
2019-01-21T16:19:30.800Z,80.17
2019-01-21T16:22:54.896Z,78.87
2019-01-21T16:25:34.077Z,95.83
2019-01-21T16:28:49.335Z,106.17
2019-01-21T16:31:09.809Z,103.97
2019-01-21T16:34:18.763Z,91.00
2019-01-21T16:37:01.006Z,118.33
2019-01-21T16:39:56.263Z,104.63
2019-01-21T16:42:29.844Z,101.07
2019-01-21T16:44:37.543Z,163.00
2019-01-21T16:46:45.087Z,137.87
2019-01-21T16:48:52.758Z,80.00
2019-01-21T16:51:00.645Z,93.47
2019-01-21T16:53:08.411Z,133.03
2019-01-21T16:55:15.928Z,76.87
2019-01-21T16:57:23.610Z,66.87
2019-01-21T16:59:31.042Z,76.90
2019-01-21T17:01:38.633Z,81.37
2019-01-21T17:03:45.868Z,63.30
2019-01-21T17:05:53.601Z,82.27
2019-01-21T17:08:01.118Z,81.03
2019-01-21T17:10:10.157Z,97.17
2019-01-21T17:12:18.516Z,69.63
2019-01-21T17:14:25.812Z,70.20
2019-01-21T17:16:33.300Z,79.97
2019-01-21T17:18:40.618Z,70.57
2019-01-21T17:20:48.165Z,63.07
2019-01-21T17:22:55.725Z,57.97
2019-01-21T17:25:02.909Z,57.57
2019-01-21T17:27:10.319Z,69.37
2019-01-21T17:29:17.775Z,76.13
2019-01-21T17:31:25.380Z,74.07
2019-01-21T17:33:32.992Z,67.97
2019-01-21T17:35:40.644Z,85.97
2019-01-21T17:37:48.086Z,78.63
2019-01-21T17:39:55.532Z,62.67
2019-01-21T17:42:03.043Z,56.90
2019-01-21T17:44:10.619Z,55.17
2019-01-21T17:46:18.539Z,50.30
2019-01-21T17:48:26.013Z,60.60
2019-01-21T17:50:33.592Z,58.77
2019-01-21T17:52:41.166Z,60.00
2019-01-21T17:54:48.392Z,63.23
2019-01-21T17:56:55.809Z,65.93
2019-01-21T17:59:03.412Z,80.90
2019-01-21T18:01:10.910Z,63.50
2019-01-21T18:03:19.353Z,74.57
2019-01-21T18:05:26.736Z,69.83
2019-01-21T18:07:34.266Z,64.07
2019-01-21T18:09:42.021Z,70.83
2019-01-21T18:11:49.408Z,59.20
2019-01-21T18:13:57.325Z,61.83
2019-01-21T18:16:04.939Z,61.30
2019-01-21T18:18:12.472Z,65.13
2019-01-21T18:20:26.011Z,63.20
2019-01-21T18:22:34.739Z,63.23
2019-01-21T18:24:42.319Z,64.57
2019-01-21T18:26:49.747Z,70.33
2019-01-21T18:28:57.550Z,59.63
2019-01-21T18:31:05.197Z,52.57
2019-01-21T18:33:12.674Z,55.40
2019-01-21T18:35:20.268Z,73.80
2019-01-21T18:37:27.997Z,76.60
2019-01-21T18:39:35.687Z,61.90
2019-01-21T18:41:43.317Z,82.40
2019-01-21T18:43:50.912Z,59.70
2019-01-21T18:45:58.626Z,87.70
2019-01-21T18:48:06.325Z,75.67
2019-01-21T18:50:13.974Z,61.37
2019-01-21T18:52:22.308Z,59.77
2019-01-21T18:54:29.805Z,49.43
2019-01-21T18:56:37.529Z,55.37
2019-01-21T18:58:45.217Z,50.83
2019-01-21T19:00:53.372Z,50.23
2019-01-21T19:03:00.796Z,54.53
2019-01-21T19:05:14.436Z,65.10
2019-01-21T19:07:21.985Z,56.10
2019-01-21T19:09:29.816Z,51.03
2019-01-21T19:11:37.857Z,45.57
2019-01-21T19:13:45.674Z,48.97
2019-01-21T19:15:54.233Z,49.30
2019-01-21T19:18:02.369Z,51.17
2019-01-21T19:20:11.960Z,104.93
2019-01-21T19:22:19.625Z,65.67
2019-01-21T19:24:27.367Z,105.10
2019-01-21T19:26:35.314Z,90.33
2019-01-21T19:28:43.115Z,76.63
2019-01-21T19:30:50.570Z,78.27
2019-01-21T19:32:58.447Z,80.73
2019-01-21T19:35:07.920Z,72.10
2019-01-21T19:37:15.738Z,67.83
2019-01-21T19:39:24.785Z,62.93
2019-01-21T19:41:32.312Z,101.83
2019-01-21T19:43:40.096Z,78.27
2019-01-21T19:45:47.762Z,66.53
2019-01-21T19:47:56.248Z,65.23
2019-01-21T19:50:03.829Z,53.73
2019-01-21T19:52:11.587Z,74.67
2019-01-21T19:54:19.297Z,56.60
2019-01-21T19:56:26.726Z,66.13
2019-01-21T19:58:34.343Z,70.80
2019-01-21T20:00:42.031Z,54.13
2019-01-21T20:02:49.814Z,56.23
2019-01-21T20:04:57.799Z,56.83
2019-01-21T20:07:05.404Z,56.10
2019-01-21T20:09:13.345Z,52.70
2019-01-21T20:11:20.995Z,53.03
2019-01-21T20:13:28.397Z,60.13
2019-01-21T20:15:35.913Z,51.73
2019-01-21T20:17:43.940Z,51.10
2019-01-21T20:19:51.398Z,56.03
2019-01-21T20:21:58.959Z,47.43
2019-01-21T20:24:06.609Z,49.57
2019-01-21T20:26:14.003Z,54.90
2019-01-21T20:28:21.491Z,52.47
2019-01-21T20:30:29.077Z,48.00
2019-01-21T20:32:36.375Z,45.63
2019-01-21T20:34:44.087Z,52.53
2019-01-21T20:36:51.490Z,50.00
2019-01-21T20:38:58.901Z,53.77
2019-01-21T20:41:06.749Z,47.70
2019-01-21T20:43:14.667Z,41.60
2019-01-21T20:45:22.386Z,36.37
2019-01-21T20:47:30.029Z,38.63
2019-01-21T20:49:37.576Z,49.03
2019-01-21T20:51:44.981Z,41.37
2019-01-21T20:53:52.456Z,42.07
2019-01-21T20:56:00.369Z,42.60
2019-01-21T20:58:08.480Z,59.50
2019-01-21T21:00:21.955Z,64.63
2019-01-21T21:02:29.722Z,47.93
2019-01-21T21:04:37.039Z,69.70
2019-01-21T21:06:44.000Z,80.23
2019-01-21T21:08:50.752Z,46.10
2019-01-21T21:10:57.768Z,41.80
2019-01-21T21:13:04.823Z,43.00
2019-01-21T21:15:19.189Z,39.13
2019-01-21T21:17:26.326Z,35.37
2019-01-21T21:19:33.962Z,36.20
2019-01-21T21:21:40.863Z,35.87
2019-01-21T21:23:47.783Z,36.50
2019-01-21T21:25:55.114Z,45.17
2019-01-21T21:28:02.423Z,34.87
2019-01-21T21:30:19.800Z,53.90
2019-01-21T21:32:26.917Z,75.30
2019-01-21T21:34:34.163Z,83.97
2019-01-21T21:36:42.800Z,90.87
2019-01-21T21:38:50.042Z,44.43
2019-01-21T21:40:56.827Z,45.77
2019-01-21T21:43:04.581Z,47.67
2019-01-21T21:45:13.004Z,49.27
2019-01-21T21:47:20.339Z,51.53
2019-01-21T21:49:27.379Z,57.30
2019-01-21T21:51:34.293Z,47.87
2019-01-21T21:53:41.337Z,49.70
2019-01-21T21:55:48.370Z,53.03
2019-01-21T21:57:55.610Z,53.53
2019-01-21T22:00:02.700Z,52.20
2019-01-21T22:02:09.689Z,47.00
2019-01-21T22:04:16.499Z,44.37
2019-01-21T22:06:23.544Z,46.20
2019-01-21T22:08:30.384Z,51.30
2019-01-21T22:10:37.247Z,57.27
2019-01-21T22:12:44.325Z,43.17
2019-01-21T22:14:51.290Z,51.73
2019-01-21T22:16:58.604Z,45.07
2019-01-21T22:19:05.449Z,51.37
2019-01-21T22:21:13.376Z,43.83
2019-01-21T22:23:21.467Z,41.93
2019-01-21T22:25:28.699Z,50.57
2019-01-21T22:27:35.989Z,42.90
2019-01-21T22:29:43.013Z,41.13
2019-01-21T22:31:50.419Z,46.67
2019-01-21T22:33:57.920Z,47.07
2019-01-21T22:36:05.405Z,42.10
2019-01-21T22:38:12.895Z,50.73
2019-01-21T22:40:22.524Z,41.03
2019-01-21T22:42:30.014Z,47.27
2019-01-21T22:44:37.441Z,55.17
2019-01-21T22:46:44.990Z,56.53
2019-01-21T22:48:52.318Z,54.97
2019-01-21T22:51:00.383Z,52.27
2019-01-21T22:53:07.964Z,63.03
2019-01-21T22:55:16.153Z,64.07
2019-01-21T22:57:23.703Z,52.37
2019-01-21T22:59:30.821Z,53.03
2019-01-21T23:01:38.234Z,53.13
2019-01-21T23:03:45.813Z,51.33
2019-01-21T23:05:53.241Z,44.30
2019-01-21T23:08:01.134Z,47.27
2019-01-21T23:10:08.966Z,44.57
2019-01-21T23:12:16.732Z,41.03
2019-01-21T23:14:24.399Z,43.67
2019-01-21T23:16:31.822Z,45.13
2019-01-21T23:18:39.537Z,41.87
2019-01-21T23:20:46.934Z,39.40
2019-01-21T23:22:54.789Z,43.13
2019-01-21T23:25:02.471Z,41.40
2019-01-21T23:27:10.565Z,45.23
2019-01-21T23:29:18.331Z,51.07
2019-01-21T23:31:25.847Z,40.93
2019-01-21T23:33:33.297Z,46.43
2019-01-21T23:35:40.830Z,45.27
2019-01-21T23:37:48.212Z,53.57
2019-01-21T23:39:55.540Z,47.00
2019-01-21T23:42:03.596Z,46.00
2019-01-21T23:44:11.062Z,46.03
2019-01-21T23:46:18.759Z,44.47
2019-01-21T23:48:26.308Z,48.87
2019-01-21T23:50:33.655Z,42.80
2019-01-21T23:52:41.159Z,49.03
2019-01-21T23:54:48.643Z,42.00
2019-01-21T23:56:55.958Z,37.83
2019-01-21T23:59:03.433Z,42.13
